Terminal Aerodrome Forecast
Issued by NWS

Home | Current Version | Previous Version | Text Only | Print | Product List | Glossary On
Versions: 1 2 3 4 5 6 7 8 9 10 11 12 13 14 15 16 17 18 19 20 21 22 23 24 25 26 27 28 29 30
000
FTUS46 KMTR 272000 AAA
TAFSFO
TAF AMD
KSFO 272003Z 2720/2824 28018G25KT P6SM FEW010 SCT020
      TEMPO 2720/2722 BKN020
     FM272200 28020G32KT P6SM SCT025 BKN050
     FM272300 27025G35KT P6SM SCT025
     FM280300 27020G32KT P6SM SCT020
     FM280900 28015G25KT P6SM SCT015 BKN040
     FM281300 30008KT P6SM VCSH SCT020 BKN040=

USA.gov is the U.S. government's official web portal to all federal, state and local government web resources and services.